createdAt,value
2022-11-20T00:00:57.974Z,75.68
2022-11-20T00:03:24.491Z,75.85
2022-11-20T00:05:50.909Z,76.09
2022-11-20T00:08:17.291Z,75.19
2022-11-20T00:10:43.653Z,75.46
2022-11-20T00:13:10.003Z,75.54
2022-11-20T00:15:36.382Z,75.51
2022-11-20T00:18:02.725Z,75.85
2022-11-20T00:20:29.133Z,75.65
2022-11-20T00:22:55.561Z,75.31
2022-11-20T00:25:21.963Z,74.83
2022-11-20T00:27:48.333Z,75.28
2022-11-20T00:30:15.157Z,75.16
2022-11-20T00:32:41.812Z,75.33
2022-11-20T00:35:08.409Z,75.74
2022-11-20T00:37:34.775Z,75.35
2022-11-20T00:40:01.161Z,75.07
2022-11-20T00:42:27.572Z,75.07
2022-11-20T00:44:53.935Z,75.40
2022-11-20T00:47:20.296Z,75.54
2022-11-20T00:49:46.753Z,74.91
2022-11-20T00:52:13.152Z,75.16
2022-11-20T00:54:39.501Z,75.30
2022-11-20T01:00:35.936Z,75.52
2022-11-20T01:03:02.317Z,75.37
2022-11-20T01:05:28.695Z,75.51
2022-11-20T01:07:55.125Z,75.70
2022-11-20T01:10:21.520Z,75.18
2022-11-20T01:13:07.920Z,75.02
2022-11-20T01:15:35.163Z,74.70
2022-11-20T01:18:01.507Z,74.72
2022-11-20T01:20:27.966Z,75.30
2022-11-20T01:22:54.389Z,75.46
2022-11-20T01:25:20.739Z,74.94
2022-11-20T01:27:47.131Z,74.58
2022-11-20T01:30:13.838Z,75.31
2022-11-20T01:32:40.176Z,75.49
2022-11-20T01:35:10.561Z,75.86
2022-11-20T01:37:36.940Z,75.55
2022-11-20T01:40:03.949Z,75.81
2022-11-20T01:42:49.389Z,75.98
2022-11-20T01:45:54.522Z,76.11
2022-11-20T01:48:24.584Z,76.39
2022-11-20T01:50:54.525Z,76.47
2022-11-20T01:53:26.131Z,76.56
2022-11-20T01:55:55.971Z,76.68
2022-11-20T01:58:28.263Z,76.50
2022-11-20T02:00:54.679Z,76.64
2022-11-20T02:03:22.347Z,76.91
2022-11-20T02:06:23.664Z,76.78
2022-11-20T02:08:50.576Z,76.84
2022-11-20T02:11:17.010Z,76.82
2022-11-20T02:13:46.607Z,77.04
2022-11-20T02:16:26.330Z,76.88
2022-11-20T02:18:55.842Z,76.51
2022-11-20T02:21:42.844Z,76.13
2022-11-20T02:24:19.025Z,76.27
2022-11-20T02:26:51.649Z,75.70
2022-11-20T02:29:24.193Z,75.62
2022-11-20T02:31:51.371Z,75.33
2022-11-20T02:34:18.036Z,75.38
2022-11-20T02:36:46.001Z,75.68
2022-11-20T02:39:14.467Z,75.68
2022-11-20T02:41:40.994Z,76.12
2022-11-20T02:44:07.505Z,75.95
2022-11-20T02:46:34.720Z,76.23
2022-11-20T02:49:03.689Z,76.84
2022-11-20T02:51:31.130Z,76.91
2022-11-20T02:53:57.657Z,76.79
2022-11-20T02:56:24.700Z,76.40
2022-11-20T02:58:51.258Z,76.77
2022-11-20T03:01:17.721Z,77.41
2022-11-20T03:03:44.248Z,77.79
2022-11-20T03:06:10.656Z,77.85
2022-11-20T03:08:37.177Z,77.95
2022-11-20T03:11:05.888Z,78.20
2022-11-20T03:13:32.440Z,78.38
2022-11-20T03:15:59.227Z,79.06
2022-11-20T03:18:28.708Z,78.99
2022-11-20T03:20:59.841Z,78.83
2022-11-20T03:23:26.765Z,78.37
2022-11-20T03:25:53.286Z,78.74
2022-11-20T03:28:19.636Z,78.65
2022-11-20T03:30:46.026Z,78.28
2022-11-20T03:33:12.392Z,78.51
2022-11-20T03:35:38.887Z,78.16
2022-11-20T03:38:05.282Z,78.48
2022-11-20T03:40:31.633Z,78.35
2022-11-20T03:42:58.013Z,78.42
2022-11-20T03:45:24.378Z,78.27
2022-11-20T03:47:50.927Z,78.94
2022-11-20T03:50:17.532Z,78.89
2022-11-20T03:52:44.134Z,78.62
2022-11-20T03:55:10.726Z,78.87
2022-11-20T03:57:37.328Z,79.14
2022-11-20T04:00:05.333Z,78.93
2022-11-20T04:02:31.791Z,79.07
2022-11-20T04:04:58.175Z,79.37
2022-11-20T04:07:24.655Z,79.40
2022-11-20T04:09:51.216Z,79.63
2022-11-20T04:12:17.659Z,79.32
2022-11-20T04:14:44.026Z,79.24
2022-11-20T04:17:10.407Z,79.59
2022-11-20T04:19:36.776Z,80.20
2022-11-20T04:22:03.247Z,80.35
2022-11-20T04:24:29.688Z,80.71
2022-11-20T04:26:56.103Z,80.40
2022-11-20T04:29:22.771Z,80.77
2022-11-20T04:31:49.512Z,80.91
2022-11-20T04:34:15.883Z,81.09
2022-11-20T04:36:43.313Z,80.80
2022-11-20T04:39:13.580Z,80.44
2022-11-20T04:41:39.913Z,80.13
2022-11-20T04:44:07.008Z,80.30
2022-11-20T04:46:36.675Z,80.75
2022-11-20T04:49:03.710Z,80.79
2022-11-20T04:51:30.149Z,80.40
2022-11-20T04:53:57.544Z,79.91
2022-11-20T04:56:24.404Z,79.64
2022-11-20T04:58:51.319Z,79.41
2022-11-20T05:01:23.382Z,78.84
2022-11-20T05:03:50.561Z,78.80
2022-11-20T05:06:19.355Z,78.87
2022-11-20T05:08:45.791Z,78.24
2022-11-20T05:11:14.582Z,77.84
2022-11-20T05:13:41.233Z,77.74
2022-11-20T05:16:12.779Z,76.97
2022-11-20T05:18:40.518Z,76.88
2022-11-20T05:21:07.684Z,76.74
2022-11-20T05:23:34.730Z,77.46
2022-11-20T05:26:01.790Z,77.20
2022-11-20T05:28:30.318Z,77.44
2022-11-20T05:30:56.878Z,77.78
2022-11-20T05:33:23.500Z,77.61
2022-11-20T05:35:49.971Z,78.38
2022-11-20T05:38:16.879Z,78.16
2022-11-20T05:40:43.299Z,78.23
2022-11-20T05:43:09.713Z,78.43
2022-11-20T05:45:36.137Z,78.39
2022-11-20T05:48:02.604Z,78.77
2022-11-20T05:50:29.359Z,77.93
2022-11-20T05:52:55.763Z,77.83
2022-11-20T05:55:22.384Z,77.87
2022-11-20T05:57:48.919Z,77.17
2022-11-20T06:00:15.874Z,77.01
2022-11-20T06:02:42.361Z,77.81
2022-11-20T06:05:09.120Z,78.94
2022-11-20T06:07:35.632Z,79.28
2022-11-20T06:10:02.592Z,79.62
2022-11-20T06:12:28.979Z,79.60
2022-11-20T06:14:55.327Z,80.06
2022-11-20T06:17:21.661Z,79.93
2022-11-20T06:19:48.118Z,79.67
2022-11-20T06:22:14.489Z,80.02
2022-11-20T06:24:40.971Z,80.63
2022-11-20T06:27:07.379Z,81.27
2022-11-20T06:29:34.235Z,81.93
2022-11-20T06:32:00.911Z,82.41
2022-11-20T06:34:27.351Z,83.28
2022-11-20T06:36:53.727Z,83.66
2022-11-20T06:39:20.650Z,84.01
2022-11-20T06:41:47.436Z,84.30
2022-11-20T06:44:13.811Z,84.85
2022-11-20T06:46:40.208Z,85.23
2022-11-20T06:49:06.923Z,84.52
2022-11-20T06:51:33.540Z,84.31
2022-11-20T06:54:01.961Z,84.45
2022-11-20T06:56:28.900Z,84.84
2022-11-20T06:58:55.361Z,84.52
2022-11-20T07:01:21.938Z,83.94
2022-11-20T07:03:54.444Z,84.47
2022-11-20T07:06:21.227Z,85.15
2022-11-20T07:08:47.976Z,85.63
2022-11-20T07:11:14.424Z,85.29
2022-11-20T07:13:40.833Z,85.40
2022-11-20T07:16:08.753Z,85.44
2022-11-20T07:18:35.607Z,84.69
2022-11-20T07:21:07.835Z,85.24
2022-11-20T07:23:34.312Z,84.56
2022-11-20T07:26:08.744Z,84.69
2022-11-20T07:28:35.824Z,84.77
2022-11-20T07:32:35.984Z,84.14
2022-11-20T07:35:02.363Z,84.74
2022-11-20T07:37:29.046Z,84.25
2022-11-20T07:39:55.511Z,83.40
2022-11-20T07:42:21.880Z,83.16
2022-11-20T07:44:48.721Z,83.03
2022-11-20T07:47:15.062Z,82.59
2022-11-20T07:49:41.470Z,82.60
2022-11-20T07:52:07.880Z,82.55
2022-11-20T07:54:34.324Z,82.44
2022-11-20T07:57:00.761Z,82.21
2022-11-20T07:59:27.153Z,82.09
2022-11-20T08:01:53.754Z,81.91
2022-11-20T08:04:20.255Z,81.82
2022-11-20T08:06:46.670Z,81.53
2022-11-20T08:09:13.040Z,81.52
2022-11-20T08:11:58.384Z,81.04
2022-11-20T08:14:24.811Z,80.84
2022-11-20T08:16:51.275Z,80.70
2022-11-20T08:19:19.173Z,80.37
2022-11-20T08:21:46.072Z,80.41
2022-11-20T08:24:12.674Z,80.00
2022-11-20T08:26:40.383Z,80.48
2022-11-20T08:29:07.312Z,81.38
2022-11-20T08:31:34.322Z,81.27
2022-11-20T08:34:00.897Z,81.48
2022-11-20T08:36:29.266Z,81.31
2022-11-20T08:38:58.117Z,81.19
2022-11-20T08:41:24.517Z,80.93
2022-11-20T08:43:52.252Z,82.40
2022-11-20T08:46:18.721Z,81.85
2022-11-20T08:48:45.525Z,81.81
2022-11-20T08:51:13.832Z,81.84
2022-11-20T08:53:40.955Z,81.95
2022-11-20T08:56:07.725Z,81.73
2022-11-20T08:58:55.024Z,81.68
2022-11-20T09:01:22.869Z,82.00
2022-11-20T09:03:49.653Z,81.55
2022-11-20T09:06:17.097Z,81.18
2022-11-20T09:08:43.504Z,81.17
2022-11-20T09:11:10.604Z,81.15
2022-11-20T09:13:37.595Z,81.09
2022-11-20T09:16:07.427Z,81.15
2022-11-20T09:18:36.896Z,81.46
2022-11-20T09:21:06.093Z,81.27
2022-11-20T09:23:35.059Z,80.97
2022-11-20T09:26:12.063Z,80.82
2022-11-20T09:28:39.186Z,80.49
2022-11-20T09:31:10.308Z,79.20
2022-11-20T09:33:36.961Z,79.19
2022-11-20T09:36:03.521Z,78.53
2022-11-20T09:38:30.333Z,77.88
2022-11-20T09:41:05.089Z,77.21
2022-11-20T09:44:07.374Z,75.93
2022-11-20T09:46:48.585Z,74.79
2022-11-20T09:49:32.501Z,75.36
2022-11-20T09:52:23.337Z,76.06
2022-11-20T09:54:50.918Z,75.71
2022-11-20T09:57:24.495Z,75.82
2022-11-20T09:59:57.234Z,75.79
2022-11-20T10:02:23.666Z,75.16
2022-11-20T10:05:14.168Z,75.28
2022-11-20T10:07:48.679Z,75.10
2022-11-20T10:10:28.695Z,74.85
2022-11-20T10:13:05.718Z,75.59
2022-11-20T10:15:52.063Z,75.41
2022-11-20T10:18:22.453Z,76.42
2022-11-20T10:20:58.177Z,76.71
2022-11-20T10:23:45.995Z,76.63
2022-11-20T10:26:12.341Z,76.87
2022-11-20T10:28:59.290Z,78.53
2022-11-20T10:31:35.895Z,79.06
2022-11-20T10:34:19.507Z,79.06
2022-11-20T10:37:04.624Z,79.01
2022-11-20T10:39:40.096Z,78.79
2022-11-20T10:42:15.434Z,78.86
2022-11-20T10:45:06.811Z,79.16
2022-11-20T10:47:34.251Z,79.18
2022-11-20T10:50:07.230Z,78.97
2022-11-20T10:52:38.053Z,78.67
2022-11-20T10:55:24.630Z,78.38
2022-11-20T10:58:38.703Z,78.73
2022-11-20T11:01:20.381Z,78.64
2022-11-20T11:03:47.541Z,78.50
2022-11-20T11:06:40.480Z,78.71
2022-11-20T11:09:18.112Z,78.91
2022-11-20T11:11:44.761Z,78.33
2022-11-20T11:14:13.561Z,78.25
2022-11-20T11:16:55.452Z,78.56
2022-11-20T11:19:22.383Z,78.01
2022-11-20T11:21:55.844Z,77.79
2022-11-20T11:24:41.666Z,77.96
2022-11-20T11:27:17.383Z,78.40
2022-11-20T11:29:45.040Z,78.50
2022-11-20T11:32:18.068Z,78.71
2022-11-20T11:34:44.478Z,78.29
2022-11-20T11:37:18.410Z,78.84
2022-11-20T11:39:49.350Z,78.59
2022-11-20T11:42:21.888Z,79.10
2022-11-20T11:45:07.331Z,79.28
2022-11-20T11:47:38.336Z,79.28
2022-11-20T11:50:10.459Z,79.09
2022-11-20T11:53:04.082Z,78.98
2022-11-20T11:55:32.832Z,78.95
2022-11-20T11:58:11.217Z,78.81
2022-11-20T12:00:43.493Z,78.59
2022-11-20T12:03:18.633Z,78.53
2022-11-20T12:05:50.499Z,78.53
2022-11-20T12:08:38.011Z,78.38
2022-11-20T12:11:12.629Z,78.41
2022-11-20T12:13:45.250Z,78.43
2022-11-20T12:16:17.927Z,78.39
2022-11-20T12:18:44.764Z,78.09
2022-11-20T12:21:20.392Z,78.12
2022-11-20T12:23:57.857Z,78.46
2022-11-20T12:26:50.537Z,78.11
2022-11-20T12:29:22.915Z,78.80
2022-11-20T12:32:17.034Z,78.97
2022-11-20T12:34:46.707Z,78.76
2022-11-20T12:37:31.587Z,79.61
2022-11-20T12:40:12.996Z,79.42
2022-11-20T12:43:18.570Z,79.63
2022-11-20T12:45:55.416Z,79.63
2022-11-20T12:48:32.785Z,79.85
2022-11-20T12:51:32.764Z,79.68
2022-11-20T12:54:02.210Z,79.43
2022-11-20T12:57:04.020Z,79.68
2022-11-20T12:59:52.576Z,79.41
2022-11-20T13:02:45.533Z,79.04
2022-11-20T13:05:20.978Z,80.02
2022-11-20T13:07:48.462Z,79.77
2022-11-20T13:10:22.389Z,79.65
2022-11-20T13:13:05.993Z,79.36
2022-11-20T13:15:41.161Z,79.03
2022-11-20T13:18:12.389Z,78.55
2022-11-20T13:20:44.099Z,78.12
2022-11-20T13:23:10.722Z,78.19
2022-11-20T13:25:39.517Z,77.27
2022-11-20T13:28:11.973Z,77.40
2022-11-20T13:30:51.022Z,77.79
2022-11-20T13:33:40.198Z,77.90
2022-11-20T13:36:21.900Z,77.85
2022-11-20T13:38:50.504Z,78.52
2022-11-20T13:41:33.196Z,77.98
2022-11-20T13:44:09.085Z,78.33
2022-11-20T13:46:47.928Z,78.26
2022-11-20T13:49:45.701Z,78.73
2022-11-20T13:52:40.012Z,78.65
2022-11-20T13:55:36.186Z,78.41
2022-11-20T13:58:43.566Z,78.30
2022-11-20T14:01:35.410Z,78.36
2022-11-20T14:04:09.477Z,78.47
2022-11-20T14:06:45.107Z,78.37
2022-11-20T14:09:32.742Z,78.53
2022-11-20T14:11:59.975Z,79.06
2022-11-20T14:14:28.879Z,78.95
2022-11-20T14:17:21.230Z,79.02
2022-11-20T14:19:50.410Z,79.36
2022-11-20T14:22:17.721Z,79.28
2022-11-20T14:24:44.119Z,79.23
2022-11-20T14:27:21.860Z,79.45
2022-11-20T14:29:50.951Z,79.00
2022-11-20T14:32:20.280Z,79.02
2022-11-20T14:34:50.412Z,79.46
2022-11-20T14:37:24.229Z,79.49
2022-11-20T14:39:55.801Z,79.96
2022-11-20T14:42:25.394Z,79.93
2022-11-20T14:44:55.331Z,79.92
2022-11-20T14:47:30.835Z,80.09
2022-11-20T14:49:59.683Z,80.09
2022-11-20T14:52:28.336Z,80.30
2022-11-20T14:54:56.928Z,80.67
2022-11-20T14:57:36.682Z,80.56
2022-11-20T15:00:06.693Z,80.29
2022-11-20T15:02:33.174Z,80.45
2022-11-20T15:05:02.711Z,80.51
2022-11-20T15:07:32.373Z,80.60
2022-11-20T15:10:10.169Z,80.70
2022-11-20T15:12:54.865Z,80.69
2022-11-20T15:15:32.244Z,80.85
2022-11-20T15:17:59.157Z,80.81
2022-11-20T15:20:29.268Z,80.80
2022-11-20T15:22:55.699Z,81.26
2022-11-20T15:25:22.348Z,81.57
2022-11-20T15:27:55.022Z,81.92
2022-11-20T15:30:22.144Z,83.05
2022-11-20T15:32:48.749Z,84.99
2022-11-20T15:35:16.135Z,86.37
2022-11-20T15:37:43.181Z,87.76
2022-11-20T15:40:10.081Z,88.68
2022-11-20T15:42:37.541Z,89.26
2022-11-20T15:45:04.388Z,89.79
2022-11-20T15:47:33.604Z,89.96
2022-11-20T15:50:00.235Z,90.19
2022-11-20T15:52:30.523Z,90.40
2022-11-20T15:55:08.246Z,90.77
2022-11-20T15:57:36.183Z,91.45
2022-11-20T16:00:03.472Z,91.56
2022-11-20T16:02:30.122Z,91.76
2022-11-20T16:04:56.564Z,91.91
2022-11-20T16:07:23.070Z,92.15
2022-11-20T16:09:51.022Z,92.31
2022-11-20T16:12:37.357Z,92.56
2022-11-20T16:15:22.501Z,92.81
2022-11-20T16:17:48.915Z,92.86
2022-11-20T16:20:16.555Z,92.97
2022-11-20T16:22:42.918Z,92.98
2022-11-20T16:25:09.488Z,92.90
2022-11-20T16:27:35.893Z,92.97
2022-11-20T16:30:02.251Z,93.07
2022-11-20T16:32:28.730Z,93.20
2022-11-20T16:34:55.110Z,93.34
2022-11-20T16:37:22.926Z,93.54
2022-11-20T16:39:49.433Z,93.69
2022-11-20T16:42:15.956Z,93.82
2022-11-20T16:44:42.352Z,93.86
2022-11-20T16:47:08.716Z,93.95
2022-11-20T16:49:35.085Z,94.07
2022-11-20T16:52:01.548Z,94.18
2022-11-20T16:54:28.223Z,94.30
2022-11-20T16:56:54.744Z,94.47
2022-11-20T16:59:22.491Z,94.54
2022-11-20T17:01:49.032Z,94.62
2022-11-20T17:04:15.517Z,94.72
2022-11-20T17:06:46.482Z,94.83
2022-11-20T17:09:13.799Z,94.93
2022-11-20T17:11:40.183Z,95.16
2022-11-20T17:14:09.501Z,95.27
2022-11-20T17:16:36.865Z,95.34
2022-11-20T17:19:05.157Z,95.34
2022-11-20T17:21:33.086Z,95.39
2022-11-20T17:24:04.750Z,95.52
2022-11-20T17:26:31.960Z,95.55
2022-11-20T17:29:04.175Z,95.63
2022-11-20T17:31:32.298Z,95.67
2022-11-20T17:34:00.262Z,95.72
2022-11-20T17:36:27.426Z,95.76
2022-11-20T17:38:54.325Z,95.81
2022-11-20T17:41:23.278Z,95.85
2022-11-20T17:43:54.211Z,95.92
2022-11-20T17:46:23.501Z,95.98
2022-11-20T17:48:50.466Z,96.05
2022-11-20T17:51:19.599Z,96.05
2022-11-20T17:53:48.969Z,96.05
2022-11-20T17:56:34.543Z,95.98
2022-11-20T17:59:04.958Z,96.03
2022-11-20T18:01:31.758Z,96.08
2022-11-20T18:03:58.207Z,96.11
2022-11-20T18:06:26.240Z,96.06
2022-11-20T18:08:53.072Z,96.01
2022-11-20T18:11:25.213Z,95.95
2022-11-20T18:14:12.638Z,95.97
2022-11-20T18:16:43.727Z,95.86
2022-11-20T18:19:12.155Z,95.86
2022-11-20T18:21:38.738Z,95.92
2022-11-20T18:24:05.933Z,95.99
2022-11-20T18:26:32.293Z,96.00
2022-11-20T18:29:02.100Z,96.02
2022-11-20T18:31:31.104Z,95.96
2022-11-20T18:33:57.432Z,95.86
2022-11-20T18:36:26.356Z,96.01
2022-11-20T18:38:56.026Z,96.09
2022-11-20T18:41:44.029Z,96.23
2022-11-20T18:44:38.532Z,96.40
2022-11-20T18:47:14.248Z,96.54
2022-11-20T18:49:41.926Z,96.64
2022-11-20T18:52:08.471Z,96.68
2022-11-20T18:57:36.518Z,96.57
2022-11-20T19:00:08.838Z,96.53
2022-11-20T19:02:41.104Z,96.59
2022-11-20T19:05:10.281Z,96.60
2022-11-20T19:07:36.893Z,96.64
2022-11-20T19:10:04.578Z,96.61
2022-11-20T19:12:31.204Z,96.63
2022-11-20T19:14:57.926Z,96.65
2022-11-20T19:17:25.540Z,96.60
2022-11-20T19:19:54.698Z,96.57
2022-11-20T19:22:21.701Z,96.61
2022-11-20T19:24:48.361Z,96.69
2022-11-20T19:27:14.860Z,96.57
2022-11-20T19:29:41.258Z,96.35
2022-11-20T19:32:07.691Z,96.22
2022-11-20T19:34:34.167Z,95.44
2022-11-20T19:37:01.057Z,94.71
2022-11-20T19:39:27.751Z,94.38
2022-11-20T19:41:54.413Z,93.90
2022-11-20T19:44:20.893Z,93.11
2022-11-20T19:46:47.434Z,92.56
2022-11-20T19:49:15.053Z,92.96
2022-11-20T19:51:49.058Z,93.02
2022-11-20T19:54:16.622Z,93.10
2022-11-20T19:56:43.560Z,93.01
2022-11-20T19:59:09.940Z,92.91
2022-11-20T20:01:36.489Z,92.61
2022-11-20T20:04:06.968Z,92.14
2022-11-20T20:06:36.087Z,91.96
2022-11-20T20:09:11.922Z,91.65
2022-11-20T20:11:39.241Z,91.43
2022-11-20T20:14:14.381Z,90.52
2022-11-20T20:16:41.896Z,90.34
2022-11-20T20:19:11.326Z,89.55
2022-11-20T20:21:37.685Z,89.32
2022-11-20T20:24:04.568Z,88.54
2022-11-20T20:26:32.267Z,88.45
2022-11-20T20:28:59.263Z,87.89
2022-11-20T20:31:28.383Z,87.48
2022-11-20T20:33:55.875Z,87.11
2022-11-20T20:36:23.755Z,86.70
2022-11-20T20:38:59.454Z,87.04
2022-11-20T20:41:26.179Z,87.04
2022-11-20T20:44:11.671Z,86.49
2022-11-20T20:46:38.617Z,85.73
2022-11-20T20:49:05.474Z,85.32
2022-11-20T20:51:33.540Z,85.34
2022-11-20T20:53:59.984Z,85.39
2022-11-20T20:56:26.737Z,85.13
2022-11-20T20:58:53.118Z,84.65
2022-11-20T21:01:20.360Z,84.86
2022-11-20T21:03:46.863Z,85.11
2022-11-20T21:06:13.587Z,84.94
2022-11-20T21:08:42.108Z,84.93
2022-11-20T21:11:14.184Z,84.84
2022-11-20T21:13:45.293Z,85.14
2022-11-20T21:16:13.102Z,84.95
2022-11-20T21:18:39.584Z,84.71
2022-11-20T21:21:26.800Z,84.49
2022-11-20T21:23:53.514Z,84.84
2022-11-20T21:26:20.602Z,84.91
2022-11-20T21:28:47.582Z,84.86
2022-11-20T21:31:16.515Z,84.74
2022-11-20T21:33:45.488Z,84.87
2022-11-20T21:36:15.194Z,84.84
2022-11-20T21:38:42.039Z,85.05
2022-11-20T21:41:10.585Z,84.63
2022-11-20T21:43:37.752Z,84.87
2022-11-20T21:46:08.203Z,84.99
2022-11-20T21:48:36.432Z,84.75
2022-11-20T21:51:06.845Z,85.05
2022-11-20T21:53:33.606Z,85.13
2022-11-20T21:56:00.612Z,85.55
2022-11-20T21:58:28.326Z,85.30
2022-11-20T22:00:55.062Z,85.64
2022-11-20T22:03:22.063Z,86.58
2022-11-20T22:05:56.496Z,87.15
2022-11-20T22:08:24.071Z,87.72
2022-11-20T22:10:55.242Z,87.60
2022-11-20T22:13:40.811Z,88.14
2022-11-20T22:16:10.737Z,88.32
2022-11-20T22:18:45.108Z,88.67
2022-11-20T22:21:12.733Z,88.74
2022-11-20T22:23:39.516Z,88.61
2022-11-20T22:26:08.284Z,88.49
2022-11-20T22:28:35.513Z,88.44
2022-11-20T22:31:03.726Z,88.09
2022-11-20T22:33:31.779Z,87.52
2022-11-20T22:36:12.342Z,87.18
2022-11-20T22:38:39.838Z,86.94
2022-11-20T22:41:07.361Z,86.73
2022-11-20T22:43:34.634Z,86.94
2022-11-20T22:46:07.025Z,87.20
2022-11-20T22:48:36.317Z,86.90
2022-11-20T22:51:08.646Z,87.48
2022-11-20T22:53:36.508Z,87.56
2022-11-20T22:56:06.553Z,87.31
2022-11-20T22:58:35.592Z,87.17
2022-11-20T23:01:12.568Z,87.00
2022-11-20T23:03:40.887Z,86.88
2022-11-20T23:06:07.807Z,86.72
2022-11-20T23:08:36.589Z,86.79
2022-11-20T23:11:05.377Z,87.64
2022-11-20T23:13:38.146Z,88.07
2022-11-20T23:16:16.261Z,88.56
2022-11-20T23:18:43.983Z,88.79
2022-11-20T23:21:12.849Z,88.05
2022-11-20T23:23:39.396Z,87.88
2022-11-20T23:26:08.443Z,87.50
2022-11-20T23:28:35.880Z,87.38
2022-11-20T23:31:02.873Z,87.35
2022-11-20T23:33:29.948Z,87.78
2022-11-20T23:35:57.110Z,87.86
2022-11-20T23:38:23.557Z,88.46
2022-11-20T23:40:51.106Z,88.64
2022-11-20T23:43:19.579Z,88.62
2022-11-20T23:46:00.140Z,88.46
2022-11-20T23:48:29.059Z,88.53
2022-11-20T23:51:02.547Z,88.21
2022-11-20T23:53:29.839Z,88.29
2022-11-20T23:56:01.506Z,88.00
2022-11-20T23:58:35.738Z,87.26
